Time;durP1;ratioP1;P1;durP2;ratioP2;P2;SDS_P1;SDS_P2;PMS_P1;PMS_P2;Temp;Humidity;BMP_temperature;BMP_pressure;BME280_temperature;BME280_humidity;BME280_pressure;Samples;Min_cycle;Max_cycle;Signal;HPM_P1;HPM_P2
2021/12/18 00:00:41;;;;;;;17.88;16.02;;;;;;;2.65;100.00;100456.13;2095442;28;20226;-84
2021/12/18 00:01:43;;;;;;;21.45;16.15;;;;;;;2.68;100.00;100455.69;2079323;28;20651;-79
2021/12/18 00:02:44;;;;;;;20.45;16.55;;;;;;;2.66;100.00;100455.09;2087563;28;20305;-83
2021/12/18 00:03:46;;;;;;;20.97;16.60;;;;;;;2.62;100.00;100457.38;2094812;28;20236;-83
2021/12/18 00:04:47;;;;;;;19.67;15.80;;;;;;;2.63;100.00;100466.06;2079471;28;20219;-83
2021/12/18 00:05:49;;;;;;;22.17;16.17;;;;;;;2.61;100.00;100471.56;2070992;28;20274;-83
2021/12/18 00:06:51;;;;;;;17.65;15.90;;;;;;;2.60;100.00;100469.91;2079270;28;20306;-83
2021/12/18 00:07:52;;;;;;;18.98;16.15;;;;;;;2.57;100.00;100466.91;2079215;28;20362;-78
2021/12/18 00:08:54;;;;;;;19.90;16.80;;;;;;;2.57;100.00;100470.34;2070588;28;20232;-78
2021/12/18 00:09:55;;;;;;;17.98;16.10;;;;;;;2.57;100.00;100472.97;2071162;28;20285;-77
2021/12/18 00:10:57;;;;;;;16.90;15.30;;;;;;;2.56;100.00;100476.63;2070921;28;20235;-78
2021/12/18 00:12:02;;;;;;;18.05;15.88;;;;;;;2.57;100.00;100472.97;2070906;28;20236;-79
2021/12/18 00:13:05;;;;;;;22.40;16.48;;;;;;;2.55;100.00;100485.56;2079068;28;20278;-82
2021/12/18 00:14:07;;;;;;;18.13;16.52;;;;;;;2.56;100.00;100500.34;2079196;28;20247;-83
2021/12/18 00:15:08;;;;;;;18.05;16.17;;;;;;;2.47;100.00;100488.41;2079183;28;20750;-81
2021/12/18 00:16:10;;;;;;;20.15;17.17;;;;;;;2.45;100.00;100501.00;2071260;28;20588;-84
2021/12/18 00:17:11;;;;;;;19.70;16.75;;;;;;;2.46;100.00;100502.59;2071584;28;20251;-81
2021/12/18 00:18:13;;;;;;;18.80;15.87;;;;;;;2.43;100.00;100503.84;2079145;28;20227;-81
2021/12/18 00:19:17;;;;;;;19.60;15.80;;;;;;;2.39;100.00;100488.63;2078713;28;20278;-82
2021/12/18 00:20:18;;;;;;;24.23;16.20;;;;;;;2.42;100.00;100504.03;2079382;28;20219;-82
2021/12/18 00:21:21;;;;;;;16.13;14.43;;;;;;;2.43;100.00;100503.00;2079064;28;20262;-83
2021/12/18 00:22:22;;;;;;;17.02;15.40;;;;;;;2.42;100.00;100504.81;2079406;28;20258;-82
2021/12/18 00:23:24;;;;;;;18.70;15.27;;;;;;;2.40;100.00;100511.31;2086999;28;20223;-82
2021/12/18 00:24:25;;;;;;;16.80;15.20;;;;;;;2.37;100.00;100511.75;2079137;28;20642;-82
2021/12/18 00:25:27;;;;;;;17.50;15.80;;;;;;;2.37;100.00;100506.47;2071683;28;20346;-82
2021/12/18 00:26:28;;;;;;;17.05;15.35;;;;;;;2.34;100.00;100510.31;2071044;28;20288;-83
2021/12/18 00:27:33;;;;;;;21.25;16.35;;;;;;;2.38;100.00;100513.34;2071454;28;20216;-82
2021/12/18 00:28:36;;;;;;;17.27;15.65;;;;;;;2.44;100.00;100515.19;2079034;28;20239;-83
2021/12/18 00:29:37;;;;;;;17.20;15.52;;;;;;;2.42;100.00;100518.00;2095544;28;20775;-83
2021/12/18 00:30:39;;;;;;;21.35;15.25;;;;;;;2.43;100.00;100513.53;2095464;28;20229;-83
2021/12/18 00:31:40;;;;;;;22.88;16.60;;;;;;;2.45;100.00;100509.69;2079502;28;20278;-83
2021/12/18 00:32:41;;;;;;;18.33;15.80;;;;;;;2.42;100.00;100509.28;2079414;28;20246;-82
2021/12/18 00:33:45;;;;;;;18.90;16.37;;;;;;;2.52;100.00;100513.13;2079083;28;27562;-82
2021/12/18 00:34:47;;;;;;;17.10;15.40;;;;;;;2.47;100.00;100506.84;2071062;28;20311;-83
2021/12/18 00:35:49;;;;;;;18.03;16.23;;;;;;;2.48;100.00;100505.84;2079498;28;20216;-82
2021/12/18 00:36:50;;;;;;;17.90;16.00;;;;;;;2.45;100.00;100504.44;2071207;28;20470;-82
2021/12/18 00:37:52;;;;;;;22.40;16.42;;;;;;;2.44;100.00;100507.28;2087426;28;20219;-83
2021/12/18 00:38:53;;;;;;;21.92;15.77;;;;;;;2.33;100.00;100502.63;2086866;28;20227;-82
2021/12/18 00:39:59;;;;;;;19.00;16.30;;;;;;;2.35;100.00;100505.88;2087115;28;20223;-82
2021/12/18 00:41:27;;;;;;;18.23;16.20;;;;;;;2.37;100.00;100506.47;2094422;28;20437;-83
2021/12/18 00:42:40;;;;;;;19.30;15.18;;;;;;;2.39;100.00;100510.50;2078219;28;20223;-83
2021/12/18 00:44:58;;;;;;;17.92;15.40;;;;;;;2.42;100.00;100506.66;2077672;28;20233;-83
2021/12/18 00:45:59;;;;;;;18.60;15.30;;;;;;;2.40;100.00;100511.31;2071283;28;20307;-82
2021/12/18 00:47:01;;;;;;;18.10;16.25;;;;;;;2.38;100.00;100508.09;2079061;28;20219;-82
2021/12/18 00:48:06;;;;;;;18.15;15.73;;;;;;;2.31;100.00;100507.28;2079121;28;20313;-83
2021/12/18 00:49:09;;;;;;;17.23;15.40;;;;;;;2.36;100.00;100516.22;2079192;28;20291;-83
2021/12/18 00:50:13;;;;;;;17.58;15.43;;;;;;;2.39;100.00;100521.06;2078466;28;20700;-83
2021/12/18 00:51:15;;;;;;;16.70;14.82;;;;;;;2.46;100.00;100528.94;2071653;28;20666;-83
2021/12/18 00:52:16;;;;;;;21.38;16.92;;;;;;;2.48;100.00;100526.91;2079172;28;20298;-84
2021/12/18 00:53:18;;;;;;;17.43;15.63;;;;;;;2.40;100.00;100512.13;2079276;28;20238;-83
2021/12/18 00:54:19;;;;;;;18.02;16.23;;;;;;;2.43;100.00;100513.53;2079167;28;20233;-83
2021/12/18 00:55:23;;;;;;;19.52;16.58;;;;;;;2.46;100.00;100516.59;2078932;28;20229;-83
2021/12/18 00:56:24;;;;;;;18.23;16.55;;;;;;;2.42;100.00;100523.25;2095528;28;20218;-82
2021/12/18 00:57:26;;;;;;;18.83;16.93;;;;;;;2.38;100.00;100519.44;2087205;28;20715;-83
2021/12/18 00:58:28;;;;;;;18.48;16.60;;;;;;;2.35;100.00;100526.94;2078942;28;20302;-82
2021/12/18 00:59:32;;;;;;;20.10;17.77;;;;;;;2.47;100.00;100525.28;2078605;28;20227;-82
2021/12/18 01:00:33;;;;;;;17.90;16.23;;;;;;;2.55;100.00;100525.06;2070944;28;20303;-82
2021/12/18 01:01:37;;;;;;;19.33;16.52;;;;;;;2.50;100.00;100522.22;2079065;28;20695;-82
2021/12/18 01:02:43;;;;;;;18.27;16.45;;;;;;;2.47;100.00;100522.66;2070589;28;20228;-82
2021/12/18 01:03:46;;;;;;;18.75;16.83;;;;;;;2.47;100.00;100527.94;2079083;28;20223;-83
2021/12/18 01:04:47;;;;;;;21.13;16.15;;;;;;;2.60;100.00;100525.25;2078962;28;20642;-82
2021/12/18 01:05:49;;;;;;;18.97;17.07;;;;;;;2.55;100.00;100522.44;2078912;28;20227;-80
2021/12/18 01:06:50;;;;;;;18.13;16.30;;;;;;;2.52;100.00;100525.50;2078860;28;20725;-80
2021/12/18 01:07:56;;;;;;;18.57;16.40;;;;;;;2.53;100.00;100519.22;2095152;28;20554;-83
2021/12/18 01:08:57;;;;;;;20.10;18.05;;;;;;;2.49;100.00;100516.16;2086372;28;23137;-82
2021/12/18 01:10:06;;;;;;;20.23;16.40;;;;;;;2.47;100.00;100512.13;2078942;28;20220;-82
2021/12/18 01:11:30;;;;;;;19.67;17.88;;;;;;;2.46;100.00;100527.13;2078693;28;20223;-78
2021/12/18 01:12:37;;;;;;;19.45;17.17;;;;;;;2.50;100.00;100527.50;2072978;28;20231;-78
2021/12/18 01:13:52;;;;;;;19.88;17.45;;;;;;;2.45;100.00;100519.44;2076362;28;20724;-79
2021/12/18 01:15:07;;;;;;;17.63;15.82;;;;;;;2.41;100.00;100526.09;2078340;28;20246;-80
2021/12/18 01:16:15;;;;;;;17.83;15.77;;;;;;;2.35;100.00;100529.59;2078379;28;20628;-81
2021/12/18 01:22:49;;;;;;;18.35;16.48;;;;;;;2.32;100.00;100545.78;2088447;28;20218;-82
2021/12/18 01:23:50;;;;;;;17.73;16.02;;;;;;;2.31;100.00;100542.34;2084751;28;20226;-82
2021/12/18 01:24:52;;;;;;;18.02;16.20;;;;;;;2.26;100.00;100542.16;2070794;28;20265;-82
2021/12/18 01:25:55;;;;;;;17.33;15.77;;;;;;;2.23;100.00;100543.34;2070055;28;20258;-81
2021/12/18 01:26:55;;;;;;;19.35;16.00;;;;;;;2.19;100.00;100533.44;2078543;28;20239;-81
2021/12/18 01:27:57;;;;;;;18.20;16.33;;;;;;;2.22;100.00;100536.47;2078773;28;20285;-81
2021/12/18 01:29:00;;;;;;;17.63;16.02;;;;;;;2.23;100.00;100532.00;2078377;28;20227;-81
2021/12/18 01:30:05;;;;;;;17.58;15.98;;;;;;;2.26;100.00;100535.06;2078431;28;20223;-82
2021/12/18 01:31:08;;;;;;;17.77;16.00;;;;;;;2.23;100.00;100522.28;2078736;28;20594;-82
2021/12/18 01:32:09;;;;;;;18.65;16.83;;;;;;;2.29;100.00;100517.22;2078119;28;20248;-82
2021/12/18 01:33:11;;;;;;;17.77;15.97;;;;;;;2.31;100.00;100523.91;2078589;28;20250;-82
2021/12/18 01:34:12;;;;;;;21.02;16.35;;;;;;;2.26;100.00;100521.91;2070385;28;20244;-82
2021/12/18 01:35:14;;;;;;;18.77;16.77;;;;;;;2.24;100.00;100523.91;2070658;28;20249;-82
2021/12/18 01:36:18;;;;;;;19.67;17.63;;;;;;;2.24;100.00;100523.91;2070489;28;20219;-82
2021/12/18 01:37:20;;;;;;;19.70;17.58;;;;;;;2.23;100.00;100529.38;2078827;28;20223;-82
2021/12/18 01:38:23;;;;;;;19.15;17.30;;;;;;;2.19;100.00;100518.47;2078947;28;20219;-82
2021/12/18 01:39:24;;;;;;;23.67;17.58;;;;;;;2.19;100.00;100521.09;2078223;28;20234;-81
2021/12/18 01:40:27;;;;;;;18.17;16.33;;;;;;;2.18;100.00;100518.69;2078681;28;20258;-82
2021/12/18 01:41:35;;;;;;;17.45;15.90;;;;;;;2.19;100.00;100521.09;2078671;28;20235;-82
2021/12/18 01:45:29;;;;;;;18.02;16.05;;;;;;;2.23;100.00;100524.91;2063279;28;20585;-82
2021/12/18 01:46:43;;;;;;;19.23;17.10;;;;;;;2.23;100.00;100535.47;2077907;28;20223;-82
2021/12/18 01:51:59;;;;;;;21.50;16.63;;;;;;;2.32;100.00;100546.59;2077665;28;20223;-82
2021/12/18 01:53:00;;;;;;;18.77;16.88;;;;;;;2.28;100.00;100549.84;2072098;28;20243;-81
2021/12/18 01:54:02;;;;;;;19.50;17.37;;;;;;;2.29;100.00;100552.28;2070269;28;20235;-82
2021/12/18 01:55:05;;;;;;;20.05;18.00;;;;;;;2.24;100.00;100558.13;2070765;28;20220;-82
2021/12/18 01:56:08;;;;;;;20.08;17.73;;;;;;;2.16;100.00;100553.06;2078698;28;20223;-83
2021/12/18 01:57:10;;;;;;;19.92;17.75;;;;;;;2.12;100.00;100562.41;2077944;28;20619;-82
2021/12/18 01:58:11;;;;;;;21.30;18.55;;;;;;;2.07;100.00;100570.09;2078332;28;20223;-82
2021/12/18 01:59:13;;;;;;;19.30;17.38;;;;;;;1.99;100.00;100568.47;2078868;28;22421;-83
2021/12/18 02:00:15;;;;;;;20.45;18.00;;;;;;;1.99;100.00;100570.28;2086489;28;20697;-82
2021/12/18 02:01:19;;;;;;;21.67;17.35;;;;;;;1.99;100.00;100571.09;2079329;28;20224;-83
2021/12/18 02:02:20;;;;;;;21.33;19.13;;;;;;;1.95;100.00;100566.47;2078492;28;20220;-82
2021/12/18 02:03:22;;;;;;;21.65;18.25;;;;;;;1.90;100.00;100574.94;2078860;28;20613;-83
2021/12/18 02:04:25;;;;;;;20.95;18.85;;;;;;;1.91;100.00;100573.13;2086180;28;20737;-83
2021/12/18 02:05:26;;;;;;;23.00;17.70;;;;;;;1.93;100.00;100573.75;2078574;28;20224;-82
2021/12/18 02:06:27;;;;;;;20.83;18.42;;;;;;;1.89;100.00;100580.41;2078152;28;20227;-83
2021/12/18 02:07:28;;;;;;;20.65;18.45;;;;;;;1.90;100.00;100582.03;2086652;28;20222;-83
2021/12/18 02:08:33;;;;;;;19.73;17.73;;;;;;;1.87;100.00;100578.00;2078479;28;20279;-82
2021/12/18 02:09:53;;;;;;;24.05;18.10;;;;;;;1.85;100.00;100576.59;2078346;28;20262;-83
2021/12/18 02:10:59;;;;;;;20.42;18.35;;;;;;;1.87;100.00;100579.81;2077658;28;20309;-81
2021/12/18 02:12:02;;;;;;;24.23;18.52;;;;;;;1.82;100.00;100571.69;2070510;28;20220;-82
2021/12/18 02:13:04;;;;;;;21.80;18.98;;;;;;;1.83;100.00;100574.16;2078448;28;20253;-82
2021/12/18 02:14:35;;;;;;;20.65;18.45;;;;;;;1.83;100.00;100573.34;2079142;28;20785;-82
2021/12/18 02:20:54;;;;;;;19.33;16.75;;;;;;;1.81;100.00;100562.19;2070202;28;20243;-81
2021/12/18 02:21:55;;;;;;;21.42;16.70;;;;;;;1.80;100.00;100563.22;2070005;28;20232;-82
2021/12/18 02:22:57;;;;;;;20.63;17.30;;;;;;;1.81;100.00;100551.66;2069867;28;20309;-82
2021/12/18 02:23:58;;;;;;;22.05;18.02;;;;;;;1.81;100.00;100564.81;2070167;28;20341;-82
2021/12/18 02:25:01;;;;;;;22.90;17.92;;;;;;;1.80;100.00;100563.22;2086277;28;20234;-82
2021/12/18 02:26:03;;;;;;;19.67;17.58;;;;;;;1.80;100.00;100558.75;2094147;28;20740;-82
2021/12/18 02:27:05;;;;;;;22.42;17.77;;;;;;;1.81;100.00;100567.47;2078282;28;20245;-82
2021/12/18 02:28:15;;;;;;;23.95;17.83;;;;;;;1.79;100.00;100572.13;2078184;28;20327;-82
2021/12/18 02:29:16;;;;;;;22.70;18.33;;;;;;;1.89;100.00;100578.59;2078249;28;20235;-82
2021/12/18 02:30:21;;;;;;;20.98;18.30;;;;;;;1.88;100.00;100573.53;2078017;28;20307;-82
2021/12/18 02:31:22;;;;;;;24.38;17.85;;;;;;;1.89;100.00;100575.16;2077696;28;20231;-79
2021/12/18 02:32:25;;;;;;;23.33;18.93;;;;;;;1.88;100.00;100576.97;2078000;28;20696;-81
2021/12/18 02:33:27;;;;;;;25.08;18.10;;;;;;;1.83;100.00;100568.91;2086200;28;20842;-82
2021/12/18 02:34:31;;;;;;;25.02;19.05;;;;;;;1.87;100.00;100567.47;2078277;28;20769;-82
2021/12/18 02:35:37;;;;;;;20.83;18.67;;;;;;;1.89;100.00;100562.81;2070445;28;20262;-82
2021/12/18 02:36:46;;;;;;;22.88;18.15;;;;;;;1.85;100.00;100560.78;2077741;28;20291;-80
2021/12/18 02:37:47;;;;;;;21.40;18.48;;;;;;;1.88;100.00;100565.66;2078946;28;20678;-81
2021/12/18 02:39:03;;;;;;;21.97;17.80;;;;;;;1.91;100.00;100563.44;2078245;28;20641;-82
2021/12/18 02:41:32;;;;;;;25.08;18.60;;;;;;;1.87;100.00;100558.75;2077464;28;20235;-81
2021/12/18 02:42:34;;;;;;;20.40;18.25;;;;;;;1.80;100.00;100552.69;2071068;28;20224;-82
2021/12/18 02:43:38;;;;;;;24.45;19.17;;;;;;;1.78;100.00;100552.09;2070150;28;20234;-82
2021/12/18 02:44:39;;;;;;;21.67;19.33;;;;;;;1.78;100.00;100545.00;2086269;28;20218;-81
2021/12/18 02:45:41;;;;;;;20.27;18.30;;;;;;;1.74;100.00;100548.22;2086374;28;20269;-81
2021/12/18 02:46:46;;;;;;;23.42;18.33;;;;;;;1.78;100.00;100555.53;2086120;28;20291;-81
2021/12/18 02:47:48;;;;;;;25.58;18.52;;;;;;;1.75;100.00;100541.97;2093290;28;20286;-82
2021/12/18 02:48:53;;;;;;;22.75;19.10;;;;;;;1.72;100.00;100539.72;2078206;28;20233;-82
2021/12/18 02:49:55;;;;;;;21.27;18.38;;;;;;;1.67;100.00;100538.53;2085730;28;20258;-81
2021/12/18 02:50:57;;;;;;;20.63;18.50;;;;;;;1.74;100.00;100554.31;2093168;28;20246;-81
2021/12/18 02:52:00;;;;;;;23.60;18.52;;;;;;;1.75;100.00;100549.88;2078067;28;20233;-80
2021/12/18 02:53:05;;;;;;;20.67;17.95;;;;;;;1.74;100.00;100553.47;2070406;28;20236;-81
2021/12/18 02:54:08;;;;;;;21.65;18.00;;;;;;;1.75;100.00;100557.75;2087033;28;20232;-81
2021/12/18 02:55:09;;;;;;;23.05;18.02;;;;;;;1.73;100.00;100551.88;2085508;28;20648;-81
2021/12/18 02:56:12;;;;;;;22.23;19.60;;;;;;;1.73;100.00;100547.41;2070020;28;20318;-81
2021/12/18 02:57:13;;;;;;;20.88;18.10;;;;;;;1.73;100.00;100549.22;2077968;28;20303;-81
2021/12/18 02:58:15;;;;;;;23.10;18.90;;;;;;;1.71;100.00;100541.53;2077961;28;20227;-81
2021/12/18 02:59:17;;;;;;;21.60;19.38;;;;;;;1.78;100.00;100549.44;2086320;28;20222;-82
2021/12/18 03:00:20;;;;;;;22.42;18.75;;;;;;;1.76;100.00;100543.59;2077973;28;20223;-82
2021/12/18 03:01:25;;;;;;;21.48;18.38;;;;;;;1.72;100.00;100535.28;2078193;28;20242;-82
2021/12/18 03:02:28;;;;;;;19.95;17.88;;;;;;;1.72;100.00;100551.06;2085739;28;20236;-81
2021/12/18 03:03:32;;;;;;;22.02;19.17;;;;;;;1.75;100.00;100555.94;2086238;28;20699;-82
2021/12/18 03:04:36;;;;;;;19.48;17.55;;;;;;;1.75;100.00;100555.94;2077928;28;20697;-81
2021/12/18 03:05:46;;;;;;;20.88;18.58;;;;;;;1.73;100.00;100552.66;2077940;28;20769;-80
2021/12/18 03:06:50;;;;;;;21.40;19.20;;;;;;;1.73;100.00;100557.13;2086226;28;20230;-81
2021/12/18 03:08:02;;;;;;;23.98;18.40;;;;;;;1.69;100.00;100557.53;2078022;28;20701;-81
2021/12/18 03:09:27;;;;;;;24.65;20.33;;;;;;;1.72;100.00;100552.88;2078110;28;20311;-80
2021/12/18 03:23:50;;;;;;;25.05;18.52;;;;;;;1.73;100.00;100572.91;2079028;28;20219;-81
2021/12/18 03:24:58;;;;;;;21.63;18.50;;;;;;;1.80;100.00;100581.63;2071857;28;20224;-82
2021/12/18 03:26:01;;;;;;;21.65;18.17;;;;;;;1.79;100.00;100583.44;2071860;28;20220;-81
2021/12/18 03:27:02;;;;;;;21.02;18.48;;;;;;;1.78;100.00;100579.19;2079703;28;20733;-81
2021/12/18 03:28:06;;;;;;;20.75;18.73;;;;;;;1.87;100.00;100582.44;2087870;28;20274;-82
2021/12/18 03:29:07;;;;;;;22.27;18.13;;;;;;;1.87;100.00;100590.34;2087102;28;20269;-81
2021/12/18 03:30:09;;;;;;;24.92;18.98;;;;;;;1.82;100.00;100592.75;2087292;28;20318;-80
2021/12/18 03:31:10;;;;;;;22.85;18.55;;;;;;;1.82;100.00;100592.75;2087490;28;20320;-81
2021/12/18 03:32:12;;;;;;;21.07;18.90;;;;;;;1.83;100.00;100589.13;2079347;28;20289;-81
2021/12/18 03:33:13;;;;;;;22.50;20.13;;;;;;;1.87;100.00;100595.59;2079610;28;20257;-80
2021/12/18 03:34:15;;;;;;;24.13;20.00;;;;;;;1.86;100.00;100583.47;2079442;28;20219;-81
2021/12/18 03:35:17;;;;;;;21.80;19.48;;;;;;;1.89;100.00;100580.41;2087587;28;20802;-81
2021/12/18 03:36:22;;;;;;;22.75;20.35;;;;;;;1.87;100.00;100580.63;2087403;28;20223;-82
2021/12/18 03:37:22;;;;;;;21.73;19.40;;;;;;;1.90;100.00;100585.47;2087422;28;20230;-81
2021/12/18 03:38:25;;;;;;;23.63;18.97;;;;;;;1.93;100.00;100585.09;2087591;28;20310;-81
2021/12/18 03:39:27;;;;;;;21.42;19.30;;;;;;;1.85;100.00;100581.84;2079510;28;20270;-81
2021/12/18 03:40:29;;;;;;;24.55;19.52;;;;;;;1.88;100.00;100586.69;2079674;28;20699;-81
2021/12/18 03:41:30;;;;;;;22.65;18.55;;;;;;;1.92;100.00;100586.09;2079540;28;20311;-81
2021/12/18 03:42:32;;;;;;;21.52;19.13;;;;;;;1.91;100.00;100584.50;2087760;28;20222;-82
2021/12/18 03:43:36;;;;;;;20.58;18.42;;;;;;;1.89;100.00;100588.31;2079628;28;20223;-82
2021/12/18 03:44:39;;;;;;;26.27;19.52;;;;;;;1.90;100.00;100589.94;2071161;28;20596;-81
2021/12/18 03:45:41;;;;;;;22.83;20.42;;;;;;;1.88;100.00;100581.44;2079482;28;20746;-81
2021/12/18 03:46:42;;;;;;;24.52;19.10;;;;;;;1.85;100.00;100584.47;2071181;28;20326;-82
2021/12/18 03:47:44;;;;;;;20.87;18.80;;;;;;;1.82;100.00;100588.28;2079445;28;20227;-81
2021/12/18 03:48:44;;;;;;;20.75;18.70;;;;;;;1.89;100.00;100590.94;2079608;28;20281;-81
2021/12/18 03:49:48;;;;;;;20.70;18.47;;;;;;;1.84;100.00;100591.56;2079558;28;20286;-81
2021/12/18 03:50:52;;;;;;;22.80;18.65;;;;;;;1.81;100.00;100597.22;2080256;28;20689;-81
2021/12/18 03:51:54;;;;;;;20.50;18.35;;;;;;;1.81;100.00;100585.88;2078915;28;20254;-80
2021/12/18 03:52:55;;;;;;;25.42;18.27;;;;;;;1.80;100.00;100584.25;2079494;28;20306;-81
2021/12/18 03:53:57;;;;;;;21.27;19.05;;;;;;;1.80;100.00;100595.59;2071252;28;20232;-81
2021/12/18 03:54:59;;;;;;;20.40;18.50;;;;;;;1.90;100.00;100601.25;2079395;28;20231;-81
2021/12/18 03:56:02;;;;;;;21.17;18.98;;;;;;;1.98;100.00;100602.91;2079435;28;20318;-81
2021/12/18 03:57:04;;;;;;;21.67;19.35;;;;;;;1.91;100.00;100594.19;2071204;28;20230;-81
2021/12/18 03:58:06;;;;;;;25.52;19.10;;;;;;;1.90;100.00;100603.09;2087858;28;20643;-81
2021/12/18 03:59:07;;;;;;;21.00;18.77;;;;;;;1.84;100.00;100596.81;2087548;28;20306;-81
2021/12/18 04:00:12;;;;;;;23.93;18.13;;;;;;;1.87;100.00;100604.31;2078911;28;20227;-80
2021/12/18 04:01:16;;;;;;;20.73;18.75;;;;;;;1.86;100.00;100599.25;2086889;28;20270;-81
2021/12/18 04:02:17;;;;;;;21.47;19.27;;;;;;;1.85;100.00;100606.34;2079306;28;20253;-81
2021/12/18 04:03:20;;;;;;;21.85;18.92;;;;;;;1.84;100.00;100602.09;2079393;28;20306;-82
2021/12/18 04:04:21;;;;;;;23.95;18.58;;;;;;;1.85;100.00;100608.16;2079562;28;20219;-81
2021/12/18 04:05:22;;;;;;;20.98;18.95;;;;;;;1.85;100.00;100608.16;2078821;28;20231;-80
2021/12/18 04:06:24;;;;;;;20.97;18.93;;;;;;;1.84;100.00;100609.97;2071133;28;20279;-80
2021/12/18 04:07:25;;;;;;;23.02;18.90;;;;;;;1.83;100.00;100608.38;2070972;28;20800;-81
2021/12/18 04:08:27;;;;;;;22.03;19.80;;;;;;;1.79;100.00;100606.31;2077777;28;20649;-81
2021/12/18 04:09:28;;;;;;;22.58;20.02;;;;;;;1.81;100.00;100606.94;2080308;28;20243;-81
2021/12/18 04:10:34;;;;;;;21.25;19.08;;;;;;;1.80;100.00;100610.56;2087460;28;20258;-81
2021/12/18 04:11:35;;;;;;;22.25;20.00;;;;;;;1.86;100.00;100615.84;2079401;28;20215;-80
2021/12/18 04:12:37;;;;;;;22.57;18.83;;;;;;;1.83;100.00;100610.19;2087387;28;20227;-82
2021/12/18 04:13:43;;;;;;;20.70;18.88;;;;;;;1.84;100.00;100602.09;2095036;28;20237;-82
2021/12/18 04:14:45;;;;;;;25.55;19.50;;;;;;;1.85;100.00;100608.97;2079152;28;20219;-82
2021/12/18 04:15:47;;;;;;;23.25;18.60;;;;;;;1.84;100.00;100601.28;2071082;28;20581;-82
2021/12/18 04:16:48;;;;;;;20.67;17.42;;;;;;;1.85;100.00;100593.19;2070992;28;20675;-82
2021/12/18 04:17:50;;;;;;;21.13;19.13;;;;;;;1.87;100.00;100603.50;2071253;28;20607;-82
2021/12/18 04:18:51;;;;;;;19.95;18.15;;;;;;;1.83;100.00;100604.94;2087309;28;20231;-82
2021/12/18 04:19:53;;;;;;;19.27;17.47;;;;;;;1.80;100.00;100597.41;2079255;28;20307;-81
2021/12/18 04:20:54;;;;;;;20.98;19.08;;;;;;;1.86;100.00;100599.25;2078755;28;20346;-81
2021/12/18 04:21:55;;;;;;;22.50;19.40;;;;;;;1.84;100.00;100596.81;2087151;28;20231;-82
2021/12/18 04:22:56;;;;;;;19.15;17.55;;;;;;;1.87;100.00;100585.09;2079080;28;20231;-82
2021/12/18 04:23:58;;;;;;;23.20;19.13;;;;;;;1.87;100.00;100590.34;2071036;28;20259;-83
2021/12/18 04:25:01;;;;;;;23.08;19.20;;;;;;;1.87;100.00;100590.34;2070682;28;20220;-82
2021/12/18 04:26:05;;;;;;;24.10;18.73;;;;;;;1.82;100.00;100583.03;2078083;28;20633;-82
2021/12/18 04:27:06;;;;;;;22.08;19.83;;;;;;;1.79;100.00;100582.63;2071147;28;20667;-82
2021/12/18 04:28:08;;;;;;;21.07;19.00;;;;;;;1.76;100.00;100578.59;2070991;28;20224;-82
2021/12/18 04:29:08;;;;;;;25.42;20.10;;;;;;;1.71;100.00;100567.84;2078684;28;20230;-81
2021/12/18 04:30:12;;;;;;;22.00;19.57;;;;;;;1.68;100.00;100569.06;2087270;28;20222;-81
2021/12/18 04:31:13;;;;;;;25.90;19.00;;;;;;;1.70;100.00;100574.94;2079017;28;20411;-81
2021/12/18 04:32:16;;;;;;;21.42;18.90;;;;;;;1.68;100.00;100576.16;2079039;28;20230;-82
2021/12/18 04:33:17;;;;;;;23.30;19.95;;;;;;;1.68;100.00;100579.59;2079429;28;20227;-82
2021/12/18 04:34:19;;;;;;;22.63;20.27;;;;;;;1.66;100.00;100584.25;2086928;28;20720;-82
2021/12/18 04:35:19;;;;;;;24.77;20.83;;;;;;;1.64;100.00;100575.72;2078864;28;20261;-82
2021/12/18 04:36:22;;;;;;;22.67;20.43;;;;;;;1.62;100.00;100574.31;2070963;28;20224;-82
2021/12/18 04:37:23;;;;;;;24.50;19.42;;;;;;;1.58;100.00;100568.66;2062500;28;20322;-80
2021/12/18 04:38:25;;;;;;;26.15;19.63;;;;;;;1.60;100.00;100571.88;2062788;28;20229;-81
2021/12/18 04:39:26;;;;;;;30.15;20.27;;;;;;;1.62;100.00;100574.31;2071033;28;20223;-81
2021/12/18 04:40:28;;;;;;;24.42;18.98;;;;;;;1.60;100.00;100579.78;2079310;28;20227;-81
2021/12/18 04:41:40;;;;;;;22.77;19.13;;;;;;;1.61;100.00;100580.59;2071930;28;20763;-82
2021/12/18 04:42:42;;;;;;;28.15;20.10;;;;;;;1.61;100.00;100580.59;2086887;28;20249;-82
2021/12/18 04:43:43;;;;;;;28.88;18.55;;;;;;;1.60;100.00;100585.03;2087457;28;20227;-81
2021/12/18 04:44:44;;;;;;;23.07;18.63;;;;;;;1.58;100.00;100576.56;2087294;28;20223;-82
2021/12/18 04:45:48;;;;;;;24.77;19.38;;;;;;;1.55;100.00;100586.63;2087196;28;20218;-81
2021/12/18 04:46:52;;;;;;;21.50;19.30;;;;;;;1.56;100.00;100591.69;2087202;28;20219;-82
2021/12/18 04:47:53;;;;;;;24.05;18.92;;;;;;;1.54;100.00;100585.03;2086503;28;20238;-80
2021/12/18 04:48:54;;;;;;;28.57;18.30;;;;;;;1.56;100.00;100586.44;2087098;28;20317;-81
2021/12/18 04:49:56;;;;;;;21.67;19.10;;;;;;;1.56;100.00;100594.31;2087365;28;20265;-81
2021/12/18 04:50:57;;;;;;;21.35;18.23;;;;;;;1.54;100.00;100595.53;2087038;28;20584;-81
2021/12/18 04:51:59;;;;;;;21.20;19.10;;;;;;;1.53;100.00;100593.94;2078912;28;20237;-82
2021/12/18 04:53:01;;;;;;;25.50;20.17;;;;;;;1.53;100.00;100593.94;2070715;28;20678;-81
2021/12/18 04:54:04;;;;;;;26.05;19.63;;;;;;;1.54;100.00;100595.53;2070673;28;20236;-82
2021/12/18 04:55:05;;;;;;;25.08;19.40;;;;;;;1.56;100.00;100594.31;2071043;28;20728;-82
2021/12/18 04:56:07;;;;;;;25.05;20.52;;;;;;;1.52;100.00;100598.38;2070687;28;20226;-82
2021/12/18 04:57:09;;;;;;;22.48;19.98;;;;;;;1.49;100.00;100600.59;2070467;28;20285;-82
2021/12/18 04:58:11;;;;;;;28.52;19.85;;;;;;;1.52;100.00;100606.25;2070694;28;20307;-81
2021/12/18 04:59:14;;;;;;;22.25;20.00;;;;;;;1.47;100.00;100598.16;2062732;28;20236;-82
2021/12/18 05:00:20;;;;;;;24.58;20.25;;;;;;;1.54;100.00;100600.81;2070736;28;20232;-82
2021/12/18 05:01:22;;;;;;;25.27;20.15;;;;;;;1.54;100.00;100598.97;2070746;28;20310;-82
2021/12/18 05:02:33;;;;;;;25.00;19.63;;;;;;;1.51;100.00;100596.75;2086522;28;20226;-81
2021/12/18 05:03:36;;;;;;;27.67;20.25;;;;;;;1.48;100.00;100607.69;2077662;28;20709;-81
2021/12/18 05:04:37;;;;;;;26.08;20.10;;;;;;;1.46;100.00;100601.78;2070769;28;20224;-81
2021/12/18 05:05:38;;;;;;;27.48;20.00;;;;;;;1.47;100.00;100600.78;2070501;28;20232;-81
2021/12/18 05:06:44;;;;;;;26.40;20.33;;;;;;;1.42;100.00;100603.22;2078339;28;20250;-82
2021/12/18 05:07:48;;;;;;;27.30;20.42;;;;;;;1.40;100.00;100592.91;2078312;28;20239;-82
2021/12/18 05:08:49;;;;;;;24.98;20.02;;;;;;;1.42;100.00;100597.94;2062875;28;20227;-82
2021/12/18 05:09:51;;;;;;;24.47;20.23;;;;;;;1.40;100.00;100600.78;2062510;28;20679;-81
2021/12/18 05:10:51;;;;;;;24.73;20.45;;;;;;;1.38;100.00;100601.97;2079169;28;20227;-82
2021/12/18 05:11:55;;;;;;;27.07;21.27;;;;;;;1.49;100.00;100603.22;2078782;28;20321;-82
2021/12/18 05:12:58;;;;;;;27.70;22.50;;;;;;;1.45;100.00;100591.47;2070527;28;20248;-82
2021/12/18 05:14:01;;;;;;;24.10;21.27;;;;;;;1.44;100.00;100605.63;2070518;28;20224;-81
2021/12/18 05:15:03;;;;;;;29.10;21.75;;;;;;;1.39;100.00;100603.59;2062653;28;20287;-82
2021/12/18 05:16:05;;;;;;;29.38;21.75;;;;;;;1.37;100.00;100608.25;2079001;28;20260;-82
2021/12/18 05:17:06;;;;;;;28.85;21.60;;;;;;;1.38;100.00;100612.47;2078351;28;20307;-82
2021/12/18 05:18:07;;;;;;;29.00;20.93;;;;;;;1.36;100.00;100609.25;2078879;28;20227;-81
2021/12/18 05:19:08;;;;;;;32.95;21.60;;;;;;;1.35;100.00;100605.00;2086450;28;20235;-81
2021/12/18 05:20:12;;;;;;;35.40;22.15;;;;;;;1.33;100.00;100607.84;2078807;28;20685;-81
2021/12/18 05:21:13;;;;;;;31.10;21.63;;;;;;;1.34;100.00;100603.38;2079952;28;20741;-82